Tijeras, New Mexico
Current Conditions -  °F | °C
As of 6:52 PM on Saturday 20 Dec 2014 (Local Time) from KABQ Reporting Station
Broken Clouds Broken Clouds  
Wind Chill: 40°   Ceiling: 23000
Heat Index: 40°   Visibility: 10mi
Dew Point: 26°   Wind: 3mph
Humidity: 58%   Direction: 250°WSW
Pressure: 30.11"   Gusts: NA
Location:  35.08°N, 106.39°W
Report Text: KABQ 210152Z 25003KT 10SM BKN230 04/M03 A3011 RMK AO2 SLP204 T00441033
Loading
Personal Weather Stations






























Interactive Weather Map New forecast layout! Learn more

10-Day Weather Forecast

Advertisements
Track Severe Weather on mobile